Terminal Aerodrome Forecast
Issued by NWS Cleveland, OH

Home | Current Version | Previous Version | Graphics & Text | Print | Product List | Glossary Off
Versions: 1 2 3 4 5 6 7 8 9 10 11 12 13 14 15 16 17 18 19 20 21

000
FTUS41 KCLE 212337
TAFTOL
TAF
KTOL 212337Z 2200/2224 22004KT P6SM OVC080
      TEMPO 2204/2206 6SM BR BKN025
     FM220600 21003KT 6SM BR OVC025
     FM221000 21003KT 4SM BR OVC012
      TEMPO 2210/2214 OVC008
     FM221800 22008KT P6SM OVC025
     FM222100 22008KT P6SM BKN045=

USA.gov is the U.S. government's official web portal to all federal, state and local government web resources and services.